Main page
METAR-TAF:

METAR-TAF

Airports :

Belfast City, Northern Ireland

George Best Belfast City Airport

latitude: 54-36N, longitude: 005-53W, elevation: 5 m

Current weather observation

The report was made 2 hours and 50 minutes ago, at 21:20 UTC
Wind 7 kt from the South/Southeast
Temperature 14°C
Humidity 94%
Pressure 1015 hPa
Visibility 10 km or more
Few clouds at a height of 2400 ft
Broken clouds at a height of 4000 ft

METAR: EGAC 192120Z 16007KT 9999 FEW024 BKN040 14/13 Q1015

Time: 01:10 (00:10 UTC)

Forecast

The report was made 7 hours and 13 minutes ago, at 16:57 UTC
Forecast valid from 19 at 18 UTC to 19 at 21 UTC
Wind 10 kt from the South
Visibility 10 km or more
Scattered clouds at a height of 2000 ft
Probability 40% :
Temporary
from 19 at 19 UTC to 19 at 21 UTC
Visibility: 8000 m
Broken clouds at a height of 1400 ft
light rain

TAF: EGAC 191657Z 1918/1921 18010KT 9999 SCT020 PROB40 TEMPO 1919/1921 8000 -RA BKN014

Weather observations and forecasts of more than 4000 airports (METAR and TAF reports).

The available stations are represented by yellow and red dots on the map.

Hover mouse over dot to see the name of the station.

Then click to see weather observations and forecasts.

To change the map : click on the green buttons with a black cross to zoom in, on the green button with a dash to zoom out, or on the green arrows for adjacent maps.


METAR-TAF: